createdAt,value
2023-04-20T00:01:33.442Z,47.86
2023-04-20T00:04:03.478Z,48.32
2023-04-20T00:06:34.569Z,48.09
2023-04-20T00:09:06.149Z,48.40
2023-04-20T00:11:35.787Z,48.14
2023-04-20T00:14:05.926Z,47.59
2023-04-20T00:16:35.669Z,47.94
2023-04-20T00:19:05.379Z,47.56
2023-04-20T00:21:35.517Z,47.88
2023-04-20T00:24:05.200Z,48.11
2023-04-20T00:26:34.982Z,47.64
2023-04-20T00:29:04.746Z,48.13
2023-04-20T00:31:34.481Z,48.11
2023-04-20T00:34:04.196Z,47.96
2023-04-20T00:36:33.853Z,47.92
2023-04-20T00:39:03.930Z,47.82
2023-04-20T00:41:33.608Z,47.62
2023-04-20T00:44:03.316Z,47.38
2023-04-20T00:46:33.033Z,47.83
2023-04-20T00:49:05.809Z,47.38
2023-04-20T00:51:35.647Z,47.71
2023-04-20T00:54:05.429Z,47.85
2023-04-20T00:56:35.070Z,47.50
2023-04-20T00:59:04.832Z,47.71
2023-04-20T01:01:34.541Z,47.97
2023-04-20T01:04:06.950Z,47.69
2023-04-20T01:06:36.970Z,47.55
2023-04-20T01:09:06.630Z,47.42
2023-04-20T01:11:36.284Z,47.24
2023-04-20T01:14:06.013Z,47.57
2023-04-20T01:16:38.818Z,47.30
2023-04-20T01:19:08.483Z,47.22
2023-04-20T01:21:42.319Z,47.10
2023-04-20T01:24:12.005Z,47.03
2023-04-20T01:26:41.910Z,47.08
2023-04-20T01:29:11.536Z,47.51
2023-04-20T01:31:41.220Z,47.04
2023-04-20T01:34:10.941Z,46.92
2023-04-20T01:36:40.718Z,47.64
2023-04-20T01:39:10.367Z,47.39
2023-04-20T01:41:40.373Z,47.20
2023-04-20T01:44:10.000Z,47.04
2023-04-20T01:46:43.667Z,47.31
2023-04-20T01:49:13.290Z,47.13
2023-04-20T01:51:42.892Z,47.19
2023-04-20T01:54:12.581Z,47.54
2023-04-20T01:56:42.227Z,47.45
2023-04-20T01:59:11.910Z,47.37
2023-04-20T02:01:41.627Z,47.14
2023-04-20T02:04:11.629Z,47.09
2023-04-20T02:06:41.383Z,47.33
2023-04-20T02:09:11.365Z,47.26
2023-04-20T02:11:41.018Z,47.48
2023-04-20T02:14:10.700Z,47.52
2023-04-20T02:16:40.433Z,47.41
2023-04-20T02:19:10.310Z,47.28
2023-04-20T02:21:39.934Z,47.63
2023-04-20T02:24:09.926Z,47.25
2023-04-20T02:26:39.595Z,47.33
2023-04-20T02:29:09.257Z,47.31
2023-04-20T02:31:38.918Z,47.63
2023-04-20T02:34:10.915Z,47.89
2023-04-20T02:36:40.652Z,47.43
2023-04-20T02:39:10.293Z,47.79
2023-04-20T02:41:39.967Z,47.61
2023-04-20T02:44:09.707Z,47.90
2023-04-20T02:46:39.468Z,47.75
2023-04-20T02:49:09.835Z,47.59
2023-04-20T02:51:39.604Z,48.00
2023-04-20T02:54:09.310Z,48.21
2023-04-20T02:56:39.004Z,47.67
2023-04-20T02:59:08.860Z,47.63
2023-04-20T03:01:38.950Z,47.78
2023-04-20T03:04:08.793Z,47.71
2023-04-20T03:06:38.946Z,47.84
2023-04-20T03:09:10.497Z,48.15
2023-04-20T03:11:43.530Z,48.21
2023-04-20T03:14:13.439Z,47.93
2023-04-20T03:16:43.761Z,48.00
2023-04-20T03:19:13.606Z,47.85
2023-04-20T03:21:43.291Z,48.14
2023-04-20T03:24:12.924Z,48.16
2023-04-20T03:26:42.837Z,48.18
2023-04-20T03:29:12.427Z,48.25
2023-04-20T03:31:42.206Z,48.35
2023-04-20T03:34:11.960Z,48.35
2023-04-20T03:36:41.681Z,47.75
2023-04-20T03:39:11.366Z,48.02
2023-04-20T03:41:41.009Z,48.14
2023-04-20T03:44:10.677Z,48.44
2023-04-20T03:46:40.336Z,48.31
2023-04-20T03:49:09.999Z,48.64
2023-04-20T03:51:39.626Z,48.23
2023-04-20T03:54:09.328Z,48.42
2023-04-20T03:56:39.044Z,48.21
2023-04-20T03:59:08.736Z,48.05
2023-04-20T04:01:42.032Z,48.43
2023-04-20T04:04:11.966Z,48.26
2023-04-20T04:06:41.967Z,48.12
2023-04-20T04:09:11.570Z,48.41
2023-04-20T04:11:41.292Z,48.05
2023-04-20T04:14:10.910Z,48.40
2023-04-20T04:16:40.657Z,48.49
2023-04-20T04:19:12.351Z,48.71
2023-04-20T04:21:42.923Z,48.41
2023-04-20T04:24:12.731Z,48.17
2023-04-20T04:26:42.434Z,48.26
2023-04-20T04:29:12.114Z,48.79
2023-04-20T04:31:42.006Z,48.65
2023-04-20T04:34:12.453Z,48.78
2023-04-20T04:36:42.132Z,48.58
2023-04-20T04:39:11.931Z,48.56
2023-04-20T04:41:41.684Z,48.51
2023-04-20T04:44:12.698Z,48.73
2023-04-20T04:46:42.500Z,48.49
2023-04-20T04:49:13.074Z,48.50
2023-04-20T04:51:42.717Z,48.69
2023-04-20T04:54:12.497Z,48.56
2023-04-20T04:56:42.139Z,49.03
2023-04-20T04:59:11.917Z,48.77
2023-04-20T05:01:41.701Z,48.93
2023-04-20T05:04:11.509Z,48.65
2023-04-20T05:06:41.372Z,48.95
2023-04-20T05:09:11.098Z,48.57
2023-04-20T05:11:40.876Z,49.03
2023-04-20T05:14:10.536Z,49.05
2023-04-20T05:16:40.267Z,49.11
2023-04-20T05:19:10.047Z,48.79
2023-04-20T05:21:40.788Z,48.73
2023-04-20T05:24:10.513Z,48.83
2023-04-20T05:26:40.124Z,49.15
2023-04-20T05:29:09.896Z,48.93
2023-04-20T05:31:42.428Z,48.69
2023-04-20T05:34:12.523Z,48.81
2023-04-20T05:36:42.948Z,48.77
2023-04-20T05:39:12.603Z,48.74
2023-04-20T05:41:42.218Z,48.39
2023-04-20T05:44:11.947Z,48.84
2023-04-20T05:46:41.639Z,48.59
2023-04-20T05:49:11.445Z,48.70
2023-04-20T05:51:41.205Z,48.76
2023-04-20T05:54:11.937Z,48.63
2023-04-20T05:56:41.582Z,48.85
2023-04-20T05:59:11.326Z,48.41
2023-04-20T06:01:43.945Z,48.39
2023-04-20T06:04:14.053Z,48.49
2023-04-20T06:06:43.831Z,48.75
2023-04-20T06:09:13.594Z,48.55
2023-04-20T06:11:43.286Z,48.40
2023-04-20T06:14:13.672Z,48.72
2023-04-20T06:16:43.434Z,48.61
2023-04-20T06:19:13.124Z,48.80
2023-04-20T06:21:42.802Z,48.50
2023-04-20T06:24:12.433Z,48.53
2023-04-20T06:26:42.124Z,48.55
2023-04-20T06:29:11.818Z,48.13
2023-04-20T06:31:41.523Z,48.33
2023-04-20T06:34:11.175Z,48.54
2023-04-20T06:36:43.901Z,48.56
2023-04-20T06:39:13.574Z,48.05
2023-04-20T06:41:43.230Z,48.52
2023-04-20T06:44:12.972Z,48.21
2023-04-20T06:46:42.669Z,48.56
2023-04-20T06:49:12.311Z,48.26
2023-04-20T06:51:41.937Z,48.35
2023-04-20T06:54:11.929Z,48.30
2023-04-20T06:56:41.539Z,48.46
2023-04-20T06:59:11.137Z,48.19
2023-04-20T07:01:40.915Z,48.21
2023-04-20T07:04:10.848Z,48.06
2023-04-20T07:06:40.589Z,48.03
2023-04-20T07:09:10.870Z,48.20
2023-04-20T07:11:40.520Z,48.16
2023-04-20T07:14:10.103Z,48.29
2023-04-20T07:16:39.848Z,48.11
2023-04-20T07:19:09.580Z,48.04
2023-04-20T07:21:39.359Z,48.08
2023-04-20T07:24:09.153Z,48.30
2023-04-20T07:26:38.843Z,47.80
2023-04-20T07:29:08.489Z,48.26
2023-04-20T07:31:38.091Z,47.83
2023-04-20T07:34:08.556Z,47.98
2023-04-20T07:36:40.574Z,47.76
2023-04-20T07:39:10.298Z,47.64
2023-04-20T07:41:39.983Z,47.96
2023-04-20T07:44:09.763Z,48.04
2023-04-20T07:46:39.516Z,48.32
2023-04-20T07:49:09.216Z,47.83
2023-04-20T07:51:38.875Z,47.77
2023-04-20T07:54:09.418Z,47.64
2023-04-20T07:56:39.075Z,47.65
2023-04-20T07:59:08.836Z,48.02
2023-04-20T08:01:38.691Z,47.95
2023-04-20T08:04:08.697Z,47.81
2023-04-20T08:06:38.502Z,47.48
2023-04-20T08:09:08.631Z,47.52
2023-04-20T08:11:38.334Z,47.78
2023-04-20T08:14:10.585Z,48.18
2023-04-20T08:16:40.475Z,47.85
2023-04-20T08:21:42.604Z,47.75
2023-04-20T08:24:12.420Z,47.63
2023-04-20T08:26:42.432Z,48.04
2023-04-20T08:29:12.345Z,47.85
2023-04-20T08:31:42.372Z,47.70
2023-04-20T08:34:12.095Z,47.97
2023-04-20T08:36:41.811Z,47.70
2023-04-20T08:39:13.999Z,48.01
2023-04-20T08:41:43.718Z,47.76
2023-04-20T08:44:13.443Z,47.97
2023-04-20T08:46:43.945Z,47.99
2023-04-20T08:49:14.722Z,47.88
2023-04-20T08:51:45.664Z,47.95
2023-04-20T08:54:15.541Z,47.72
2023-04-20T08:56:47.278Z,47.98
2023-04-20T08:59:18.438Z,48.20
2023-04-20T09:01:48.222Z,48.10
2023-04-20T09:04:36.181Z,48.00
2023-04-20T09:07:05.944Z,47.92
2023-04-20T09:09:35.636Z,47.58
2023-04-20T09:12:06.420Z,48.00
2023-04-20T09:14:49.615Z,48.17
2023-04-20T09:17:19.684Z,47.82
2023-04-20T09:19:55.406Z,47.75
2023-04-20T09:22:35.369Z,47.73
2023-04-20T09:25:20.668Z,48.04
2023-04-20T09:28:03.527Z,47.98
2023-04-20T09:30:43.191Z,48.15
2023-04-20T09:33:13.951Z,48.04
2023-04-20T09:35:44.358Z,48.08
2023-04-20T09:38:17.442Z,47.67
2023-04-20T09:40:47.215Z,47.76
2023-04-20T09:43:20.983Z,48.01
2023-04-20T09:45:51.900Z,47.86
2023-04-20T09:48:22.454Z,47.56
2023-04-20T09:50:52.325Z,47.46
2023-04-20T09:53:22.364Z,47.60
2023-04-20T09:55:53.446Z,47.75
2023-04-20T09:58:23.194Z,47.77
2023-04-20T10:00:53.016Z,48.05
2023-04-20T10:03:23.301Z,47.94
2023-04-20T10:05:57.021Z,47.58
2023-04-20T10:08:26.761Z,47.62
2023-04-20T10:10:56.370Z,47.48
2023-04-20T10:13:36.913Z,47.92
2023-04-20T10:16:06.652Z,47.61
2023-04-20T10:18:36.432Z,47.54
2023-04-20T10:21:12.870Z,47.87
2023-04-20T10:23:52.354Z,47.44
2023-04-20T10:26:22.383Z,47.54
2023-04-20T10:28:52.048Z,47.54
2023-04-20T10:31:23.544Z,47.40
2023-04-20T10:33:57.668Z,47.41
2023-04-20T10:36:31.561Z,47.50
2023-04-20T10:39:03.013Z,47.25
2023-04-20T10:41:33.078Z,47.23
2023-04-20T10:44:11.969Z,47.35
2023-04-20T10:46:41.717Z,47.28
2023-04-20T10:49:11.505Z,47.17
2023-04-20T10:51:47.952Z,47.21
2023-04-20T10:54:18.426Z,47.38
2023-04-20T10:56:49.615Z,46.77
2023-04-20T10:59:20.631Z,47.33
2023-04-20T11:01:50.697Z,47.51
2023-04-20T11:04:20.371Z,46.88
2023-04-20T11:06:50.366Z,46.46
2023-04-20T11:09:21.320Z,46.46
2023-04-20T11:12:17.627Z,46.71
2023-04-20T11:14:56.660Z,47.05
2023-04-20T11:17:38.998Z,46.94
2023-04-20T11:20:16.716Z,46.46
2023-04-20T11:22:46.672Z,46.66
2023-04-20T11:25:16.394Z,46.36
2023-04-20T11:27:46.129Z,46.24
2023-04-20T11:30:15.994Z,46.29
2023-04-20T11:32:45.906Z,46.17
2023-04-20T11:35:16.019Z,46.21
2023-04-20T11:37:55.908Z,46.69
2023-04-20T11:40:26.706Z,46.32
2023-04-20T11:42:58.190Z,46.38
2023-04-20T11:45:29.732Z,46.67
2023-04-20T11:47:59.677Z,46.53
2023-04-20T11:50:29.664Z,46.41
2023-04-20T11:52:59.302Z,46.57
2023-04-20T11:55:29.361Z,46.26
2023-04-20T11:57:59.063Z,46.22
2023-04-20T12:00:28.777Z,46.28
2023-04-20T12:02:58.698Z,46.51
2023-04-20T12:05:28.817Z,46.36
2023-04-20T12:07:58.504Z,46.42
2023-04-20T12:10:28.180Z,46.22
2023-04-20T12:12:58.403Z,46.04
2023-04-20T12:15:28.187Z,46.41
2023-04-20T12:17:57.961Z,46.51
2023-04-20T12:20:27.733Z,46.43
2023-04-20T12:22:58.940Z,46.08
2023-04-20T12:25:28.869Z,46.17
2023-04-20T12:27:58.702Z,46.25
2023-04-20T12:30:28.475Z,46.07
2023-04-20T12:32:58.333Z,46.40
2023-04-20T12:35:28.125Z,46.38
2023-04-20T12:37:57.880Z,46.06
2023-04-20T12:40:27.706Z,46.46
2023-04-20T12:42:57.795Z,46.05
2023-04-20T12:45:27.474Z,46.14
2023-04-20T12:47:59.780Z,46.12
2023-04-20T12:50:30.078Z,46.22
2023-04-20T12:53:00.376Z,46.32
2023-04-20T12:55:30.109Z,46.11
2023-04-20T12:57:59.753Z,46.07
2023-04-20T13:00:29.434Z,46.04
2023-04-20T13:02:59.181Z,46.41
2023-04-20T13:05:29.227Z,46.06
2023-04-20T13:07:58.946Z,46.07
2023-04-20T13:10:28.695Z,46.37
2023-04-20T13:12:59.416Z,45.98
2023-04-20T13:15:38.686Z,46.17
2023-04-20T13:18:09.439Z,46.43
2023-04-20T13:20:39.166Z,46.02
2023-04-20T13:23:09.040Z,46.18
2023-04-20T13:25:40.222Z,45.89
2023-04-20T13:28:09.832Z,46.24
2023-04-20T13:30:40.394Z,46.02
2023-04-20T13:33:10.115Z,46.38
2023-04-20T13:35:39.892Z,45.85
2023-04-20T13:38:09.511Z,46.19
2023-04-20T13:40:39.146Z,46.27
2023-04-20T13:43:08.755Z,46.24
2023-04-20T13:45:38.587Z,45.89
2023-04-20T13:48:08.570Z,45.90
2023-04-20T13:50:38.277Z,45.97
2023-04-20T13:53:07.999Z,46.15
2023-04-20T13:55:37.657Z,45.79
2023-04-20T13:58:07.295Z,46.08
2023-04-20T14:00:37.109Z,46.28
2023-04-20T14:03:07.688Z,46.14
2023-04-20T14:05:37.444Z,46.28
2023-04-20T14:08:08.530Z,45.84
2023-04-20T14:10:41.044Z,46.03
2023-04-20T14:13:10.648Z,46.02
2023-04-20T14:15:40.502Z,45.98
2023-04-20T14:18:10.179Z,46.06
2023-04-20T14:20:39.977Z,46.04
2023-04-20T14:23:09.782Z,46.05
2023-04-20T14:25:39.565Z,46.24
2023-04-20T14:28:09.253Z,45.76
2023-04-20T14:30:38.881Z,45.87
2023-04-20T14:33:08.931Z,45.58
2023-04-20T14:35:38.749Z,46.04
2023-04-20T14:38:08.430Z,46.06
2023-04-20T14:40:38.053Z,45.66
2023-04-20T14:43:07.736Z,45.98
2023-04-20T14:45:37.521Z,45.58
2023-04-20T14:48:07.686Z,45.71
2023-04-20T14:50:37.705Z,45.82
2023-04-20T14:53:07.436Z,45.47
2023-04-20T14:55:37.186Z,45.44
2023-04-20T14:58:06.862Z,45.55
2023-04-20T15:00:36.533Z,45.50
2023-04-20T15:03:06.471Z,45.41
2023-04-20T15:05:36.506Z,45.51
2023-04-20T15:08:06.625Z,45.56
2023-04-20T15:10:37.857Z,45.44
2023-04-20T15:13:08.762Z,45.20
2023-04-20T15:15:48.315Z,45.70
2023-04-20T15:18:20.057Z,45.68
2023-04-20T15:20:49.788Z,45.53
2023-04-20T15:23:19.556Z,45.40
2023-04-20T15:25:49.246Z,45.67
2023-04-20T15:28:18.881Z,45.45
2023-04-20T15:30:48.630Z,45.62
2023-04-20T15:33:18.958Z,45.31
2023-04-20T15:35:48.777Z,45.19
2023-04-20T15:38:18.464Z,45.10
2023-04-20T15:40:48.263Z,45.28
2023-04-20T15:43:17.908Z,45.05
2023-04-20T15:45:47.575Z,45.00
2023-04-20T15:48:17.259Z,45.46
2023-04-20T15:50:46.884Z,45.47
2023-04-20T15:53:16.538Z,44.98
2023-04-20T15:55:46.212Z,45.26
2023-04-20T15:58:15.933Z,45.25
2023-04-20T16:00:45.575Z,45.09
2023-04-20T16:03:15.403Z,45.05
2023-04-20T16:05:45.206Z,45.43
2023-04-20T16:08:15.922Z,45.30
2023-04-20T16:10:45.581Z,44.93
2023-04-20T16:13:15.217Z,45.17
2023-04-20T16:15:44.905Z,45.11
2023-04-20T16:18:14.529Z,45.25
2023-04-20T16:20:45.538Z,45.20
2023-04-20T16:23:16.001Z,44.72
2023-04-20T16:25:45.639Z,45.11
2023-04-20T16:28:15.322Z,45.05
2023-04-20T16:30:46.058Z,45.03
2023-04-20T16:33:16.301Z,45.07
2023-04-20T16:35:45.941Z,44.89
2023-04-20T16:38:16.527Z,45.35
2023-04-20T16:40:46.306Z,44.85
2023-04-20T16:43:15.935Z,44.86
2023-04-20T16:45:45.534Z,45.15
2023-04-20T16:48:15.268Z,44.74
2023-04-20T16:50:47.660Z,44.70
2023-04-20T16:53:17.311Z,45.28
2023-04-20T16:55:47.024Z,44.76
2023-04-20T16:58:16.744Z,44.63
2023-04-20T17:00:46.423Z,44.86
2023-04-20T17:03:16.588Z,44.71
2023-04-20T17:05:48.053Z,45.07
2023-04-20T17:08:17.757Z,44.99
2023-04-20T17:10:47.693Z,44.89
2023-04-20T17:13:17.432Z,44.89
2023-04-20T17:15:47.867Z,44.71
2023-04-20T17:18:17.773Z,44.75
2023-04-20T17:20:47.718Z,44.75
2023-04-20T17:23:20.341Z,44.73
2023-04-20T17:25:50.811Z,44.70
2023-04-20T17:28:20.570Z,45.12
2023-04-20T17:30:50.234Z,44.86
2023-04-20T17:33:19.969Z,45.00
2023-04-20T17:35:49.580Z,44.72
2023-04-20T17:38:19.268Z,44.90
2023-04-20T17:40:48.977Z,44.75
2023-04-20T17:43:18.705Z,44.86
2023-04-20T17:45:51.746Z,44.81
2023-04-20T17:48:21.452Z,44.79
2023-04-20T17:50:53.869Z,44.95
2023-04-20T17:53:23.552Z,44.78
2023-04-20T17:55:53.153Z,44.90
2023-04-20T17:58:22.801Z,44.69
2023-04-20T18:00:52.879Z,44.64
2023-04-20T18:03:22.948Z,44.86
2023-04-20T18:05:54.295Z,44.45
2023-04-20T18:08:24.796Z,44.80
2023-04-20T18:10:54.505Z,44.60
2023-04-20T18:13:24.217Z,44.71
2023-04-20T18:15:53.913Z,44.88
2023-04-20T18:18:23.608Z,44.81
2023-04-20T18:20:53.335Z,44.62
2023-04-20T18:23:23.025Z,44.62
2023-04-20T18:25:53.576Z,45.04
2023-04-20T18:28:23.417Z,44.75
2023-04-20T18:30:53.023Z,44.66
2023-04-20T18:33:22.824Z,44.63
2023-04-20T18:35:52.454Z,44.78
2023-04-20T18:38:22.252Z,44.83
2023-04-20T18:40:51.901Z,44.77
2023-04-20T18:43:21.550Z,44.36
2023-04-20T18:45:51.162Z,44.71
2023-04-20T18:48:20.828Z,44.74
2023-04-20T18:50:50.580Z,44.89
2023-04-20T18:53:20.290Z,44.60
2023-04-20T18:55:50.004Z,44.52
2023-04-20T18:58:19.616Z,44.67
2023-04-20T19:00:50.753Z,44.33
2023-04-20T19:03:20.671Z,44.40
2023-04-20T19:05:50.394Z,44.62
2023-04-20T19:08:20.073Z,44.65
2023-04-20T19:10:49.744Z,44.65
2023-04-20T19:13:19.412Z,44.42
2023-04-20T19:15:49.077Z,44.38
2023-04-20T19:18:18.819Z,44.35
2023-04-20T19:20:48.507Z,44.54
2023-04-20T19:23:19.416Z,44.45
2023-04-20T19:25:49.077Z,44.33
2023-04-20T19:28:18.713Z,44.66
2023-04-20T19:30:48.410Z,44.39
2023-04-20T19:33:18.051Z,44.49
2023-04-20T19:35:52.165Z,44.35
2023-04-20T19:38:22.741Z,44.40
2023-04-20T19:40:52.876Z,44.66
2023-04-20T19:43:22.533Z,44.62
2023-04-20T19:45:52.277Z,44.40
2023-04-20T19:48:21.924Z,44.37
2023-04-20T19:50:53.093Z,44.52
2023-04-20T19:53:22.920Z,44.49
2023-04-20T19:55:52.667Z,44.16
2023-04-20T19:58:22.408Z,44.21
2023-04-20T20:00:52.226Z,44.20
2023-04-20T20:03:22.264Z,45.51
2023-04-20T20:05:52.077Z,45.72
2023-04-20T20:08:21.874Z,45.69
2023-04-20T20:10:51.559Z,45.84
2023-04-20T20:13:21.260Z,45.79
2023-04-20T20:15:50.993Z,45.78
2023-04-20T20:18:21.918Z,45.53
2023-04-20T20:20:52.820Z,45.71
2023-04-20T20:23:22.578Z,45.73
2023-04-20T20:25:52.207Z,45.68
2023-04-20T20:28:21.868Z,45.50
2023-04-20T20:30:51.497Z,45.49
2023-04-20T20:33:21.115Z,45.57
2023-04-20T20:35:50.770Z,45.79
2023-04-20T20:38:22.430Z,45.68
2023-04-20T20:40:54.929Z,45.48
2023-04-20T20:43:26.711Z,45.48
2023-04-20T20:45:56.837Z,45.56
2023-04-20T20:48:26.527Z,45.63
2023-04-20T20:50:56.158Z,45.31
2023-04-20T20:53:25.880Z,45.57
2023-04-20T20:55:58.228Z,44.95
2023-04-20T20:58:27.912Z,45.19
2023-04-20T21:00:57.617Z,45.06
2023-04-20T21:03:27.671Z,44.95
2023-04-20T21:05:57.471Z,45.01
2023-04-20T21:08:27.140Z,44.95
2023-04-20T21:10:56.904Z,44.83
2023-04-20T21:13:26.737Z,44.99
2023-04-20T21:15:56.374Z,44.70
2023-04-20T21:18:26.083Z,44.69
2023-04-20T21:20:55.703Z,44.67
2023-04-20T21:23:25.400Z,44.48
2023-04-20T21:25:55.036Z,44.38
2023-04-20T21:28:24.673Z,44.28
2023-04-20T21:30:54.494Z,44.39
2023-04-20T21:33:24.215Z,44.36
2023-04-20T21:35:53.876Z,44.28
2023-04-20T21:38:23.572Z,44.04
2023-04-20T21:40:53.213Z,43.89
2023-04-20T21:43:22.799Z,43.94
2023-04-20T21:45:53.099Z,43.78
2023-04-20T21:48:22.855Z,43.72
2023-04-20T21:50:52.549Z,43.81
2023-04-20T21:53:22.176Z,43.64
2023-04-20T21:55:51.992Z,43.50
2023-04-20T21:58:21.757Z,43.49
2023-04-20T22:00:52.596Z,43.50
2023-04-20T22:03:22.351Z,43.63
2023-04-20T22:05:52.172Z,43.45
2023-04-20T22:08:24.837Z,43.51
2023-04-20T22:10:54.608Z,43.24
2023-04-20T22:13:24.274Z,43.02
2023-04-20T22:15:54.377Z,43.32
2023-04-20T22:18:24.208Z,43.39
2023-04-20T22:20:54.063Z,43.22
2023-04-20T22:23:23.727Z,43.16
2023-04-20T22:25:53.432Z,42.96
2023-04-20T22:28:23.212Z,42.94
2023-04-20T22:30:53.131Z,43.06
2023-04-20T22:33:22.824Z,43.09
2023-04-20T22:35:52.892Z,42.90
2023-04-20T22:38:22.673Z,42.94
2023-04-20T22:40:52.374Z,42.98
2023-04-20T22:43:23.050Z,42.46
2023-04-20T22:45:52.750Z,42.47
2023-04-20T22:48:23.126Z,42.54
2023-04-20T22:50:54.910Z,42.42
2023-04-20T22:53:24.655Z,42.30
2023-04-20T22:55:54.241Z,42.22
2023-04-20T22:58:23.927Z,42.10
2023-04-20T23:00:53.707Z,42.23
2023-04-20T23:03:23.515Z,42.06
2023-04-20T23:05:53.265Z,41.82
2023-04-20T23:08:23.260Z,41.85
2023-04-20T23:10:55.298Z,41.93
2023-04-20T23:13:27.717Z,41.79
2023-04-20T23:15:57.561Z,41.93
2023-04-20T23:18:27.416Z,41.75
2023-04-20T23:20:58.370Z,41.76
2023-04-20T23:23:28.085Z,41.75
2023-04-20T23:25:57.735Z,41.34
2023-04-20T23:28:27.525Z,41.47
2023-04-20T23:30:57.162Z,41.44
2023-04-20T23:33:26.848Z,41.42
2023-04-20T23:35:56.513Z,41.51
2023-04-20T23:38:26.220Z,41.40
2023-04-20T23:40:56.079Z,41.50
2023-04-20T23:43:26.320Z,41.43
2023-04-20T23:45:56.008Z,41.18
2023-04-20T23:48:25.619Z,41.57
2023-04-20T23:50:57.213Z,41.40
2023-04-20T23:53:26.891Z,41.06
2023-04-20T23:56:01.281Z,41.20
2023-04-20T23:58:31.003Z,41.22
